createdAt,value
2018-09-08T00:03:35.571Z,7.40
2018-09-08T00:07:43.719Z,7.30
2018-09-08T00:11:51.872Z,7.30
2018-09-08T00:16:05.534Z,7.30
2018-09-08T00:20:19.163Z,7.30
2018-09-08T00:24:32.798Z,7.20
2018-09-08T00:28:41.814Z,7.20
2018-09-08T00:32:49.958Z,7.20
2018-09-08T00:36:58.117Z,7.20
2018-09-08T00:41:06.311Z,7.10
2018-09-08T00:45:14.449Z,7.10
2018-09-08T00:49:22.695Z,7.10
2018-09-08T00:53:30.847Z,7.00
2018-09-08T00:57:39.163Z,6.80
2018-09-08T01:01:47.307Z,6.70
2018-09-08T01:05:55.454Z,6.70
2018-09-08T01:10:03.660Z,6.60
2018-09-08T01:14:11.811Z,6.60
2018-09-08T01:18:19.951Z,6.60
2018-09-08T01:22:28.108Z,6.60
2018-09-08T01:26:36.247Z,6.60
2018-09-08T01:30:44.388Z,6.60
2018-09-08T01:34:52.536Z,6.50
2018-09-08T01:39:00.675Z,6.50
2018-09-08T01:43:08.860Z,6.40
2018-09-08T01:47:17.008Z,6.40
2018-09-08T01:51:25.162Z,6.40
2018-09-08T01:55:33.303Z,6.40
2018-09-08T01:59:41.448Z,6.40
2018-09-08T02:03:49.564Z,6.40
2018-09-08T02:07:57.676Z,6.30
2018-09-08T02:12:05.820Z,6.30
2018-09-08T02:16:13.936Z,6.10
2018-09-08T02:20:22.047Z,6.00
2018-09-08T02:24:30.544Z,6.00
2018-09-08T02:28:38.692Z,6.00
2018-09-08T02:32:46.872Z,5.90
2018-09-08T02:36:55.020Z,5.90
2018-09-08T02:41:03.225Z,6.00
2018-09-08T02:45:11.434Z,6.00
2018-09-08T02:49:19.596Z,6.00
2018-09-08T02:53:26.767Z,5.90
2018-09-08T02:57:33.940Z,5.90
2018-09-08T03:01:41.096Z,5.80
2018-09-08T03:05:48.275Z,5.80
2018-09-08T03:09:55.449Z,5.80
2018-09-08T03:14:02.613Z,5.80
2018-09-08T03:18:09.788Z,5.80
2018-09-08T03:22:16.947Z,5.80
2018-09-08T03:26:24.123Z,5.80
2018-09-08T03:30:31.292Z,5.80
2018-09-08T03:34:38.459Z,5.80
2018-09-08T03:38:45.631Z,5.80
2018-09-08T03:42:52.804Z,5.80
2018-09-08T03:46:59.987Z,5.70
2018-09-08T03:51:07.159Z,5.70
2018-09-08T03:55:14.332Z,5.70
2018-09-08T03:59:21.512Z,5.70
2018-09-08T04:03:29.668Z,5.60
2018-09-08T04:07:37.779Z,5.60
2018-09-08T04:11:45.899Z,5.60
2018-09-08T04:15:54.016Z,5.60
2018-09-08T04:20:02.140Z,5.50
2018-09-08T04:24:10.325Z,5.60
2018-09-08T04:28:18.380Z,5.60
2018-09-08T04:32:26.488Z,5.50
2018-09-08T04:36:34.599Z,5.50
2018-09-08T04:40:42.712Z,5.50
2018-09-08T04:44:50.824Z,5.50
2018-09-08T04:48:58.935Z,5.40
2018-09-08T04:53:07.056Z,5.40
2018-09-08T04:57:15.204Z,5.40
2018-09-08T05:01:23.352Z,5.40
2018-09-08T05:05:31.497Z,5.40
2018-09-08T05:09:39.639Z,5.40
2018-09-08T05:13:47.779Z,5.40
2018-09-08T05:17:55.924Z,5.40
2018-09-08T05:22:04.073Z,5.50
2018-09-08T05:26:12.215Z,5.50
2018-09-08T05:30:20.363Z,5.60
2018-09-08T05:34:28.513Z,5.70
2018-09-08T05:38:36.655Z,5.80
2018-09-08T05:42:44.814Z,5.90
2018-09-08T05:46:52.973Z,6.00
2018-09-08T05:51:01.115Z,6.20
2018-09-08T05:55:09.263Z,6.30
2018-09-08T05:59:17.429Z,6.50
2018-09-08T06:03:25.580Z,6.60
2018-09-08T06:07:33.879Z,6.80
2018-09-08T06:11:42.032Z,6.90
2018-09-08T06:15:50.191Z,7.00
2018-09-08T06:19:58.428Z,7.20
2018-09-08T06:24:06.560Z,7.40
2018-09-08T06:28:14.741Z,7.70
2018-09-08T06:32:22.876Z,7.90
2018-09-08T06:36:31.033Z,8.10
2018-09-08T06:40:39.184Z,8.30
2018-09-08T06:44:47.399Z,8.60
2018-09-08T06:48:55.488Z,8.90
2018-09-08T06:53:03.636Z,9.10
2018-09-08T06:57:11.787Z,9.50
2018-09-08T07:01:19.948Z,9.90
2018-09-08T07:05:28.091Z,10.30
2018-09-08T07:09:36.235Z,10.60
2018-09-08T07:13:44.396Z,11.00
2018-09-08T07:17:52.544Z,11.30
2018-09-08T07:22:00.698Z,11.60
2018-09-08T07:26:08.844Z,12.00
2018-09-08T07:30:16.996Z,12.60
2018-09-08T07:34:25.181Z,13.30
2018-09-08T07:38:33.337Z,13.80
2018-09-08T07:42:41.543Z,14.20
2018-09-08T07:46:49.699Z,14.50
2018-09-08T07:50:57.839Z,14.80
2018-09-08T07:55:05.988Z,15.20
2018-09-08T07:59:14.169Z,15.50
2018-09-08T08:07:30.235Z,15.90
2018-09-08T08:11:38.385Z,16.10
2018-09-08T08:15:46.549Z,16.30
2018-09-08T08:19:54.763Z,16.20
2018-09-08T08:24:02.912Z,16.30
2018-09-08T08:28:11.197Z,16.50
2018-09-08T08:32:19.348Z,16.60
2018-09-08T08:36:27.512Z,16.70
2018-09-08T08:40:35.672Z,17.10
2018-09-08T08:44:43.819Z,17.20
2018-09-08T08:48:51.992Z,17.00
2018-09-08T08:53:11.615Z,16.70
2018-09-08T08:57:19.779Z,16.60
2018-09-08T09:01:27.951Z,16.70
2018-09-08T09:05:36.105Z,17.00
2018-09-08T09:09:44.679Z,17.20
2018-09-08T09:13:52.834Z,17.60
2018-09-08T09:18:00.991Z,17.70
2018-09-08T09:22:22.927Z,18.10
2018-09-08T09:26:31.085Z,18.30
2018-09-08T09:30:39.280Z,18.40
2018-09-08T09:38:55.368Z,18.50
2018-09-08T09:43:03.528Z,18.70
2018-09-08T09:47:11.668Z,18.90
2018-09-08T09:51:19.820Z,18.90
2018-09-08T09:55:27.971Z,19.40
2018-09-08T09:59:36.115Z,19.70
2018-09-08T10:03:44.284Z,19.90
2018-09-08T10:07:53.247Z,19.70
2018-09-08T10:12:01.467Z,19.30
2018-09-08T10:16:10.035Z,19.50
2018-09-08T10:20:19.834Z,19.60
2018-09-08T10:24:28.163Z,20.10
2018-09-08T10:28:36.361Z,20.10
2018-09-08T10:32:45.241Z,19.60
2018-09-08T10:36:53.397Z,19.40
2018-09-08T10:41:01.580Z,19.70
2018-09-08T10:45:10.999Z,20.30
2018-09-08T10:49:19.194Z,20.70
2018-09-08T10:53:27.344Z,20.60
2018-09-08T10:57:35.509Z,20.20
2018-09-08T11:01:43.785Z,19.80
2018-09-08T11:05:51.801Z,19.90
2018-09-08T11:10:00.012Z,20.00
2018-09-08T11:14:08.183Z,20.60
2018-09-08T11:18:16.353Z,21.10
2018-09-08T11:22:24.503Z,21.20
2018-09-08T11:26:32.660Z,21.20
2018-09-08T11:30:40.827Z,21.10
2018-09-08T11:34:49.840Z,21.20
2018-09-08T11:38:58.406Z,21.70
2018-09-08T11:43:06.556Z,21.80
2018-09-08T11:47:14.699Z,22.10
2018-09-08T11:51:22.884Z,22.00
2018-09-08T11:59:38.988Z,21.70
2018-09-08T12:03:47.103Z,22.00
2018-09-08T12:07:55.230Z,22.20
2018-09-08T12:12:03.365Z,22.30
2018-09-08T12:16:11.480Z,22.20
2018-09-08T12:20:19.624Z,22.20
2018-09-08T12:24:27.755Z,22.00
2018-09-08T12:28:36.642Z,22.10
2018-09-08T12:32:44.756Z,22.40
2018-09-08T12:36:52.871Z,22.70
2018-09-08T12:41:01.120Z,23.00
2018-09-08T12:45:09.243Z,23.30
2018-09-08T12:49:17.359Z,23.30
2018-09-08T12:53:25.507Z,23.20
2018-09-08T12:57:33.683Z,23.50
2018-09-08T13:01:41.811Z,23.90
2018-09-08T13:05:49.933Z,23.70
2018-09-08T13:09:58.077Z,23.80
2018-09-08T13:14:06.209Z,24.10
2018-09-08T13:18:14.335Z,24.10
2018-09-08T13:22:22.444Z,23.80
2018-09-08T13:26:30.572Z,23.80
2018-09-08T13:30:38.715Z,23.70
2018-09-08T13:34:46.834Z,23.80
2018-09-08T13:43:02.891Z,24.00
2018-09-08T13:51:18.927Z,24.00
2018-09-08T13:55:27.195Z,24.30
2018-09-08T13:59:35.463Z,24.40
2018-09-08T14:03:43.634Z,24.40
2018-09-08T14:07:54.075Z,24.40
2018-09-08T14:12:02.236Z,24.10
2018-09-08T14:20:25.044Z,24.30
2018-09-08T14:24:33.203Z,24.10
2018-09-08T14:28:41.408Z,23.80
2018-09-08T14:32:49.489Z,23.20
2018-09-08T14:36:57.647Z,22.80
2018-09-08T14:41:05.814Z,22.70
2018-09-08T14:45:13.972Z,22.50
2018-09-08T14:49:22.145Z,22.40
2018-09-08T14:53:30.307Z,22.40
2018-09-08T14:57:38.467Z,22.40
2018-09-08T15:01:46.628Z,22.40
2018-09-08T15:05:54.804Z,22.50
2018-09-08T15:10:02.984Z,22.60
2018-09-08T15:14:11.128Z,22.50
2018-09-08T15:18:19.316Z,22.40
2018-09-08T15:22:27.487Z,22.20
2018-09-08T15:26:35.737Z,22.60
2018-09-08T15:30:43.835Z,23.10
2018-09-08T15:34:51.991Z,23.40
2018-09-08T15:39:00.136Z,23.50
2018-09-08T15:43:08.293Z,23.30
2018-09-08T15:47:16.448Z,23.20
2018-09-08T15:51:24.634Z,23.30
2018-09-08T15:55:32.777Z,23.20
2018-09-08T15:59:40.935Z,23.00
2018-09-08T16:03:49.107Z,22.70
2018-09-08T16:07:57.255Z,22.40
2018-09-08T16:12:05.416Z,22.00
2018-09-08T16:16:13.576Z,21.80
2018-09-08T16:20:21.728Z,21.60
2018-09-08T16:24:29.880Z,21.50
2018-09-08T16:28:38.096Z,21.40
2018-09-08T16:32:46.229Z,21.30
2018-09-08T16:36:54.400Z,21.20
2018-09-08T16:41:02.568Z,21.00
2018-09-08T16:45:10.733Z,20.80
2018-09-08T16:49:18.880Z,20.60
2018-09-08T16:53:27.043Z,20.50
2018-09-08T16:57:35.201Z,20.40
2018-09-08T17:01:43.358Z,20.20
2018-09-08T17:05:51.524Z,20.20
2018-09-08T17:09:59.680Z,20.00
2018-09-08T17:14:07.839Z,19.90
2018-09-08T17:18:15.995Z,19.80
2018-09-08T17:22:24.152Z,19.70
2018-09-08T17:26:32.310Z,19.60
2018-09-08T17:30:40.484Z,19.50
2018-09-08T17:34:48.916Z,19.30
2018-09-08T17:38:57.069Z,19.20
2018-09-08T17:43:05.280Z,19.00
2018-09-08T17:47:13.456Z,18.80
2018-09-08T17:51:21.683Z,18.70
2018-09-08T17:55:29.767Z,18.50
2018-09-08T17:59:37.928Z,18.30
2018-09-08T18:03:47.074Z,18.20
2018-09-08T18:07:55.196Z,18.00
2018-09-08T18:12:03.310Z,17.80
2018-09-08T18:16:11.425Z,17.60
2018-09-08T18:20:19.532Z,17.40
2018-09-08T18:24:27.671Z,17.20
2018-09-08T18:28:35.788Z,17.10
2018-09-08T18:32:43.903Z,16.90
2018-09-08T18:36:52.025Z,16.80
2018-09-08T18:41:00.158Z,16.60
2018-09-08T18:45:08.268Z,16.50
2018-09-08T18:49:16.400Z,16.30
2018-09-08T18:53:24.527Z,16.20
2018-09-08T18:57:32.649Z,16.00
2018-09-08T19:01:40.859Z,15.90
2018-09-08T19:05:49.005Z,15.80
2018-09-08T19:10:02.632Z,15.70
2018-09-08T19:14:16.191Z,15.60
2018-09-08T19:18:24.356Z,15.50
2018-09-08T19:22:32.509Z,15.40
2018-09-08T19:26:40.676Z,15.30
2018-09-08T19:30:48.836Z,15.20
2018-09-08T19:35:02.376Z,15.10
2018-09-08T19:39:11.335Z,15.00
2018-09-08T19:43:19.492Z,15.00
2018-09-08T19:47:33.100Z,14.90
2018-09-08T19:51:41.246Z,14.80
2018-09-08T19:55:49.400Z,14.80
2018-09-08T20:04:05.548Z,14.70
2018-09-08T20:08:13.688Z,14.60
2018-09-08T20:12:21.792Z,14.50
2018-09-08T20:16:29.903Z,14.50
2018-09-08T20:20:38.029Z,14.50
2018-09-08T20:24:46.150Z,14.50
2018-09-08T20:28:54.335Z,14.40
2018-09-08T20:33:02.416Z,14.30
2018-09-08T20:37:10.549Z,14.30
2018-09-08T20:41:18.659Z,14.30
2018-09-08T20:45:26.772Z,14.20
2018-09-08T20:49:34.887Z,14.10
2018-09-08T20:53:43.012Z,14.10
2018-09-08T20:57:51.174Z,14.10
2018-09-08T21:01:59.276Z,14.10
2018-09-08T21:06:07.395Z,14.10
2018-09-08T21:10:15.529Z,14.00
2018-09-08T21:14:23.647Z,13.90
2018-09-08T21:18:32.079Z,13.90
2018-09-08T21:22:40.207Z,13.90
2018-09-08T21:26:48.323Z,13.80
2018-09-08T21:30:56.456Z,13.70
2018-09-08T21:39:12.487Z,13.60
2018-09-08T21:43:20.606Z,13.60
2018-09-08T21:47:28.711Z,13.60
2018-09-08T21:51:36.831Z,13.50
2018-09-08T21:55:44.948Z,13.40
2018-09-08T21:59:53.088Z,13.40
2018-09-08T22:04:01.248Z,13.30
2018-09-08T22:08:09.400Z,13.30
2018-09-08T22:12:17.551Z,13.20
2018-09-08T22:16:25.720Z,13.10
2018-09-08T22:20:33.899Z,13.10
2018-09-08T22:24:42.087Z,13.00
2018-09-08T22:28:50.274Z,12.90
2018-09-08T22:32:58.462Z,12.90
2018-09-08T22:37:06.608Z,12.80
2018-09-08T22:41:14.773Z,12.80
2018-09-08T22:45:22.941Z,12.70
2018-09-08T22:49:31.109Z,12.70
2018-09-08T22:53:39.252Z,12.60
2018-09-08T22:57:47.408Z,12.50
2018-09-08T23:01:55.972Z,12.50
2018-09-08T23:10:11.993Z,12.50
2018-09-08T23:14:20.104Z,12.50
2018-09-08T23:18:28.216Z,12.40
2018-09-08T23:22:36.341Z,12.40
2018-09-08T23:26:44.469Z,12.40
2018-09-08T23:30:52.596Z,12.30
2018-09-08T23:35:00.725Z,12.20
2018-09-08T23:39:08.847Z,12.20
2018-09-08T23:43:17.004Z,12.10
2018-09-08T23:47:25.187Z,12.10
2018-09-08T23:51:33.335Z,11.90
2018-09-08T23:55:41.780Z,11.80
2018-09-08T23:59:49.934Z,11.70
